createdAt,value
2023-04-01T00:01:20.497Z,4.27
2023-04-01T00:03:50.966Z,5.00
2023-04-01T00:06:20.868Z,7.87
2023-04-01T00:08:49.473Z,6.27
2023-04-01T00:11:20.566Z,6.93
2023-04-01T00:13:49.886Z,7.80
2023-04-01T00:16:22.321Z,5.20
2023-04-01T00:18:53.473Z,4.90
2023-04-01T00:21:23.440Z,8.90
2023-04-01T00:23:52.547Z,6.17
2023-04-01T00:26:22.637Z,5.97
2023-04-01T00:28:52.241Z,5.57
2023-04-01T00:31:21.124Z,6.13
2023-04-01T00:33:49.592Z,9.67
2023-04-01T00:36:22.892Z,6.00
2023-04-01T00:38:52.957Z,6.73
2023-04-01T00:41:22.783Z,5.47
2023-04-01T00:43:56.187Z,5.13
2023-04-01T00:46:24.624Z,6.87
2023-04-01T00:52:35.510Z,5.80
2023-04-01T00:55:07.494Z,6.57
2023-04-01T00:57:39.128Z,5.70
2023-04-01T01:00:12.447Z,10.00
2023-04-01T01:02:43.802Z,8.97
2023-04-01T01:05:15.048Z,6.83
2023-04-01T01:07:52.131Z,6.90
2023-04-01T01:10:26.448Z,8.90
2023-04-01T01:13:03.937Z,7.40
2023-04-01T01:15:38.360Z,10.17
2023-04-01T01:18:15.013Z,7.13
2023-04-01T01:21:08.076Z,7.57
2023-04-01T01:24:00.192Z,7.50
2023-04-01T01:26:48.500Z,7.57
2023-04-01T01:29:32.316Z,6.50
2023-04-01T01:32:08.597Z,6.90
2023-04-01T01:34:42.996Z,7.13
2023-04-01T01:37:16.789Z,6.70
2023-04-01T01:39:48.738Z,8.07
2023-04-01T01:42:21.008Z,8.97
2023-04-01T01:44:52.676Z,9.63
2023-04-01T01:47:22.907Z,7.47
2023-04-01T01:49:53.654Z,6.43
2023-04-01T01:52:24.547Z,7.47
2023-04-01T01:54:54.638Z,6.03
2023-04-01T01:57:28.642Z,5.90
2023-04-01T02:00:01.000Z,5.50
2023-04-01T02:02:32.695Z,6.27
2023-04-01T02:05:01.717Z,7.67
2023-04-01T02:07:36.389Z,6.23
2023-04-01T02:10:05.381Z,8.43
2023-04-01T02:12:37.145Z,6.47
2023-04-01T02:15:10.634Z,7.33
2023-04-01T02:17:42.210Z,5.90
2023-04-01T02:20:16.173Z,8.20
2023-04-01T02:22:50.816Z,5.53
2023-04-01T02:25:23.563Z,6.53
2023-04-01T02:27:52.522Z,6.03
2023-04-01T02:30:22.200Z,7.83
2023-04-01T02:32:52.007Z,6.00
2023-04-01T02:35:20.975Z,8.43
2023-04-01T02:37:53.026Z,5.70
2023-04-01T02:40:21.819Z,6.53
2023-04-01T02:42:50.627Z,7.77
2023-04-01T02:45:19.363Z,5.40
2023-04-01T02:47:48.046Z,5.67
2023-04-01T02:50:16.682Z,4.87
2023-04-01T02:52:45.266Z,7.53
2023-04-01T02:55:15.516Z,5.53
2023-04-01T02:57:44.068Z,7.10
2023-04-01T03:00:13.799Z,6.20
2023-04-01T03:02:42.539Z,4.83
2023-04-01T03:05:11.340Z,5.90
2023-04-01T03:07:39.865Z,5.80
2023-04-01T03:10:09.771Z,6.37
2023-04-01T03:12:39.786Z,8.63
2023-04-01T03:15:10.396Z,4.83
2023-04-01T03:17:40.338Z,6.03
2023-04-01T03:20:11.897Z,6.43
2023-04-01T03:22:42.867Z,6.77
2023-04-01T03:25:13.067Z,5.93
2023-04-01T03:27:42.997Z,4.67
2023-04-01T03:30:12.028Z,4.40
2023-04-01T03:32:40.586Z,5.80
2023-04-01T03:35:10.922Z,4.70
2023-04-01T03:37:39.905Z,4.00
2023-04-01T03:40:09.286Z,5.23
2023-04-01T03:42:37.815Z,4.37
2023-04-01T03:45:08.976Z,4.40
2023-04-01T03:47:37.509Z,5.33
2023-04-01T03:50:08.963Z,4.13
2023-04-01T03:52:37.609Z,4.00
2023-04-01T03:55:07.315Z,6.43
2023-04-01T03:57:35.862Z,7.77
2023-04-01T04:00:04.541Z,4.73
2023-04-01T04:02:34.585Z,7.13
2023-04-01T04:05:03.126Z,4.43
2023-04-01T04:07:31.576Z,5.13
2023-04-01T04:10:00.028Z,5.60
2023-04-01T04:12:28.534Z,6.83
2023-04-01T04:14:57.126Z,5.00
2023-04-01T04:17:25.707Z,6.37
2023-04-01T04:19:55.714Z,6.33
2023-04-01T04:22:24.304Z,4.93
2023-04-01T04:24:52.772Z,6.73
2023-04-01T04:27:21.624Z,8.20
2023-04-01T04:29:50.223Z,5.60
2023-04-01T04:32:18.738Z,5.70
2023-04-01T04:34:47.293Z,7.33
2023-04-01T04:37:17.154Z,5.70
2023-04-01T04:39:45.711Z,5.27
2023-04-01T04:42:14.320Z,4.23
2023-04-01T04:44:42.831Z,5.17
2023-04-01T04:47:11.458Z,4.93
2023-04-01T04:49:39.958Z,6.07
2023-04-01T04:52:08.444Z,4.13
2023-04-01T04:54:38.385Z,4.93
2023-04-01T04:57:06.986Z,4.50
2023-04-01T04:59:35.540Z,4.07
2023-04-01T05:02:04.248Z,3.60
2023-04-01T05:04:36.413Z,3.70
2023-04-01T05:07:05.563Z,3.57
2023-04-01T05:09:35.099Z,4.27
2023-04-01T05:12:05.020Z,3.60
2023-04-01T05:14:33.563Z,3.27
2023-04-01T05:17:02.232Z,5.53
2023-04-01T05:19:30.783Z,4.07
2023-04-01T05:21:59.329Z,4.00
2023-04-01T05:24:27.911Z,3.90
2023-04-01T05:26:57.390Z,7.03
2023-04-01T05:29:27.476Z,4.43
2023-04-01T05:31:56.145Z,4.57
2023-04-01T05:34:24.702Z,3.23
2023-04-01T05:36:53.364Z,4.70
2023-04-01T05:39:21.886Z,4.10
2023-04-01T05:41:50.461Z,6.23
2023-04-01T05:44:18.989Z,3.40
2023-04-01T05:46:48.947Z,4.53
2023-04-01T05:49:17.762Z,9.47
2023-04-01T05:51:46.318Z,5.57
2023-04-01T05:54:14.938Z,3.97
2023-04-01T05:56:43.345Z,5.33
2023-04-01T05:59:13.344Z,4.43
2023-04-01T06:01:42.224Z,6.13
2023-04-01T06:04:18.749Z,5.03
2023-04-01T06:06:47.811Z,5.80
2023-04-01T06:09:18.736Z,4.60
2023-04-01T06:11:58.739Z,3.80
2023-04-01T06:14:40.685Z,7.33
2023-04-01T06:17:27.408Z,6.70
2023-04-01T06:20:05.296Z,5.77
2023-04-01T06:23:13.705Z,3.67
2023-04-01T06:26:21.280Z,3.20
2023-04-01T06:29:24.889Z,4.10
2023-04-01T06:32:28.817Z,4.57
2023-04-01T06:35:19.821Z,3.23
2023-04-01T06:38:21.728Z,4.20
2023-04-01T06:41:20.924Z,5.07
2023-04-01T06:44:01.159Z,3.57
2023-04-01T06:46:37.524Z,3.30
2023-04-01T06:49:20.432Z,6.13
2023-04-01T06:51:56.794Z,3.97
2023-04-01T06:54:33.999Z,2.83
2023-04-01T06:57:08.047Z,5.10
2023-04-01T06:59:39.753Z,7.70
2023-04-01T07:02:23.281Z,3.77
2023-04-01T07:04:56.444Z,5.43
2023-04-01T07:07:35.189Z,5.07
2023-04-01T07:10:12.324Z,4.37
2023-04-01T07:12:48.949Z,3.67
2023-04-01T07:15:22.177Z,4.63
2023-04-01T07:17:56.082Z,3.87
2023-04-01T07:20:29.753Z,3.20
2023-04-01T07:23:02.051Z,3.60
2023-04-01T07:25:34.234Z,3.90
2023-04-01T07:28:06.263Z,5.23
2023-04-01T07:30:47.755Z,3.93
2023-04-01T07:33:23.220Z,3.53
2023-04-01T07:36:00.864Z,4.73
2023-04-01T07:38:44.267Z,4.37
2023-04-01T07:41:24.894Z,2.60
2023-04-01T07:44:04.534Z,3.93
2023-04-01T07:46:59.407Z,2.40
2023-04-01T07:49:38.046Z,4.50
2023-04-01T07:52:11.961Z,2.93
2023-04-01T07:54:50.696Z,3.00
2023-04-01T07:57:23.824Z,7.37
2023-04-01T08:00:02.076Z,4.90
2023-04-01T08:02:45.702Z,5.77
2023-04-01T08:05:24.206Z,3.13
2023-04-01T08:08:02.014Z,2.73
2023-04-01T08:10:39.600Z,2.80
2023-04-01T08:13:18.473Z,4.00
2023-04-01T08:15:56.049Z,3.73
2023-04-01T08:18:35.409Z,3.30
2023-04-01T08:21:06.511Z,6.60
2023-04-01T08:23:39.609Z,5.40
2023-04-01T08:26:16.417Z,3.13
2023-04-01T08:28:50.091Z,3.90
2023-04-01T08:31:23.578Z,6.37
2023-04-01T08:33:56.768Z,5.80
2023-04-01T08:36:29.393Z,4.17
2023-04-01T08:39:08.216Z,4.43
2023-04-01T08:41:59.464Z,6.00
2023-04-01T08:44:45.924Z,6.30
2023-04-01T08:47:38.327Z,4.60
2023-04-01T08:50:34.616Z,4.43
2023-04-01T08:53:09.254Z,3.10
2023-04-01T08:55:54.426Z,4.63
2023-04-01T08:58:54.008Z,4.80
2023-04-01T09:01:43.482Z,5.97
2023-04-01T09:04:30.238Z,8.93
2023-04-01T09:07:13.104Z,4.97
2023-04-01T09:10:20.450Z,7.97
2023-04-01T09:13:09.739Z,7.13
2023-04-01T09:15:56.620Z,4.93
2023-04-01T09:18:54.702Z,5.97
2023-04-01T09:21:50.216Z,3.30
2023-04-01T09:24:44.332Z,4.23
2023-04-01T09:27:26.275Z,4.07
2023-04-01T09:30:33.758Z,3.23
2023-04-01T09:33:32.026Z,6.43
2023-04-01T09:36:09.097Z,3.53
2023-04-01T09:38:49.468Z,7.10
2023-04-01T09:41:24.506Z,5.20
2023-04-01T09:44:04.249Z,6.03
2023-04-01T09:46:55.649Z,4.27
2023-04-01T09:49:43.682Z,3.57
2023-04-01T09:52:28.533Z,4.97
2023-04-01T09:55:09.094Z,4.03
2023-04-01T09:58:06.658Z,4.53
2023-04-01T10:01:05.728Z,4.13
2023-04-01T10:04:22.003Z,3.07
2023-04-01T10:07:40.213Z,4.03
2023-04-01T10:10:46.006Z,4.60
2023-04-01T10:13:40.144Z,3.47
2023-04-01T10:16:52.756Z,3.13
2023-04-01T10:20:09.158Z,2.63
2023-04-01T10:23:23.937Z,3.80
2023-04-01T10:26:28.657Z,4.30
2023-04-01T10:29:40.123Z,6.37
2023-04-01T10:32:41.227Z,3.37
2023-04-01T10:35:42.745Z,3.83
2023-04-01T10:38:42.088Z,3.40
2023-04-01T10:41:43.820Z,3.70
2023-04-01T10:44:42.525Z,2.83
2023-04-01T10:47:39.725Z,3.57
2023-04-01T10:50:26.671Z,3.10
2023-04-01T10:53:28.850Z,3.33
2023-04-01T10:56:38.682Z,3.13
2023-04-01T10:59:43.102Z,2.03
2023-04-01T11:02:53.985Z,1.73
2023-04-01T11:06:13.545Z,2.93
2023-04-01T11:09:19.168Z,1.50
2023-04-01T11:12:26.551Z,1.30
2023-04-01T11:15:41.430Z,1.60
2023-04-01T11:18:41.333Z,1.73
2023-04-01T11:21:50.474Z,1.40
2023-04-01T11:24:47.576Z,1.87
2023-04-01T11:27:33.336Z,1.63
2023-04-01T11:30:23.032Z,3.43
2023-04-01T11:32:57.173Z,1.40
2023-04-01T11:35:45.450Z,1.47
2023-04-01T11:38:25.106Z,2.17
2023-04-01T11:41:01.973Z,1.30
2023-04-01T11:43:39.450Z,1.60
2023-04-01T11:46:14.577Z,1.30
2023-04-01T11:49:03.804Z,1.40
2023-04-01T11:51:49.978Z,4.07
2023-04-01T11:54:33.961Z,2.67
2023-04-01T11:57:18.355Z,2.83
2023-04-01T12:00:19.978Z,1.63
2023-04-01T12:03:04.721Z,1.97
2023-04-01T12:05:45.725Z,1.30
2023-04-01T12:08:27.989Z,0.87
2023-04-01T12:11:03.833Z,1.00
2023-04-01T12:13:43.239Z,1.53
2023-04-01T12:16:33.412Z,1.20
2023-04-01T12:19:17.977Z,1.53
2023-04-01T12:21:54.866Z,2.17
2023-04-01T12:24:38.811Z,1.10
2023-04-01T12:27:28.094Z,0.83
2023-04-01T12:30:23.252Z,1.10
2023-04-01T12:33:04.346Z,0.90
2023-04-01T12:35:45.327Z,2.27
2023-04-01T12:38:26.779Z,1.07
2023-04-01T12:41:11.756Z,1.37
2023-04-01T12:44:23.493Z,1.20
2023-04-01T12:47:07.966Z,0.93
2023-04-01T12:49:58.748Z,1.03
2023-04-01T12:52:43.216Z,2.00
2023-04-01T12:55:39.620Z,1.33
2023-04-01T12:58:41.482Z,1.20
2023-04-01T13:01:36.465Z,2.60
2023-04-01T13:04:34.118Z,1.20
2023-04-01T13:07:25.730Z,1.10
2023-04-01T13:10:04.299Z,1.33
2023-04-01T13:13:14.286Z,1.27
2023-04-01T13:15:49.652Z,1.30
2023-04-01T13:18:31.598Z,1.40
2023-04-01T13:21:10.546Z,1.57
2023-04-01T13:23:55.125Z,3.07
2023-04-01T13:26:31.875Z,1.30
2023-04-01T13:29:07.755Z,1.30
2023-04-01T13:31:50.099Z,1.53
2023-04-01T13:34:41.113Z,2.83
2023-04-01T13:37:24.448Z,1.73
2023-04-01T13:40:08.077Z,2.00
2023-04-01T13:42:47.163Z,2.47
2023-04-01T13:45:20.769Z,1.80
2023-04-01T13:48:29.724Z,1.90
2023-04-01T13:51:18.805Z,2.20
2023-04-01T13:54:14.785Z,2.33
2023-04-01T13:56:53.911Z,2.67
2023-04-01T13:59:49.211Z,2.13
2023-04-01T14:02:36.626Z,3.57
2023-04-01T14:05:22.386Z,2.40
2023-04-01T14:08:07.025Z,16.30
2023-04-01T14:10:45.214Z,5.00
2023-04-01T14:13:23.378Z,4.37
2023-04-01T14:16:14.218Z,3.37
2023-04-01T14:18:56.271Z,5.43
2023-04-01T14:21:36.071Z,3.43
2023-04-01T14:24:22.942Z,2.90
2023-04-01T14:27:16.671Z,2.70
2023-04-01T14:29:56.621Z,2.33
2023-04-01T14:32:36.801Z,2.77
2023-04-01T14:35:38.065Z,1.53
2023-04-01T14:38:28.605Z,1.63
2023-04-01T14:41:08.607Z,1.73
2023-04-01T14:43:57.428Z,1.97
2023-04-01T14:47:05.357Z,1.47
2023-04-01T14:49:38.504Z,2.70
2023-04-01T14:52:12.716Z,2.40
2023-04-01T14:54:45.025Z,2.53
2023-04-01T14:57:16.029Z,2.60
2023-04-01T14:59:52.135Z,3.93
2023-04-01T15:02:53.436Z,2.30
2023-04-01T15:05:36.113Z,3.97
2023-04-01T15:08:23.861Z,4.73
2023-04-01T15:11:16.194Z,1.77
2023-04-01T15:14:15.120Z,2.67
2023-04-01T15:16:57.864Z,3.10
2023-04-01T15:19:37.891Z,4.43
2023-04-01T15:22:25.747Z,7.67
2023-04-01T15:25:08.480Z,12.17
2023-04-01T15:27:49.310Z,11.37
2023-04-01T15:30:30.629Z,21.37
2023-04-01T15:33:10.586Z,18.73
2023-04-01T15:35:47.677Z,17.87
2023-04-01T15:38:30.932Z,19.43
2023-04-01T15:41:09.614Z,40.47
2023-04-01T15:43:45.124Z,30.57
2023-04-01T15:46:46.133Z,27.20
2023-04-01T15:49:29.351Z,15.57
2023-04-01T15:52:05.617Z,15.43
2023-04-01T15:55:09.823Z,13.90
2023-04-01T15:57:53.494Z,23.00
2023-04-01T16:00:33.234Z,22.13
2023-04-01T16:03:22.860Z,11.27
2023-04-01T16:06:14.074Z,9.30
2023-04-01T16:09:04.493Z,8.50
2023-04-01T16:11:46.249Z,9.20
2023-04-01T16:14:29.881Z,9.30
2023-04-01T16:17:11.767Z,10.40
2023-04-01T16:19:55.744Z,10.00
2023-04-01T16:22:32.800Z,9.40
2023-04-01T16:25:20.714Z,9.23
2023-04-01T16:27:56.742Z,9.77
2023-04-01T16:30:39.826Z,9.03
2023-04-01T16:33:15.838Z,9.97
2023-04-01T16:35:49.900Z,10.23
2023-04-01T16:38:26.476Z,11.80
2023-04-01T16:41:13.381Z,13.43
2023-04-01T16:43:48.259Z,20.43
2023-04-01T16:46:28.563Z,21.20
2023-04-01T16:49:08.068Z,25.50
2023-04-01T16:51:43.556Z,25.67
2023-04-01T16:54:21.223Z,32.83
2023-04-01T16:56:56.293Z,29.87
2023-04-01T16:59:32.111Z,30.40
2023-04-01T17:02:07.144Z,31.00
2023-04-01T17:04:41.517Z,21.00
2023-04-01T17:07:34.284Z,17.70
2023-04-01T17:10:23.329Z,17.10
2023-04-01T17:13:02.890Z,18.20
2023-04-01T17:15:39.375Z,13.53
2023-04-01T17:18:16.981Z,14.63
2023-04-01T17:20:51.430Z,14.73
2023-04-01T17:23:29.633Z,21.03
2023-04-01T17:26:28.866Z,30.03
2023-04-01T17:29:02.883Z,47.37
2023-04-01T17:31:49.062Z,47.57
2023-04-01T17:34:49.231Z,35.70
2023-04-01T17:37:33.094Z,28.77
2023-04-01T17:40:18.267Z,31.73
2023-04-01T17:42:54.703Z,92.80
2023-04-01T17:45:27.973Z,61.17
2023-04-01T17:48:07.223Z,34.37
2023-04-01T17:51:10.795Z,23.70
2023-04-01T17:53:49.210Z,22.77
2023-04-01T17:56:32.083Z,26.77
2023-04-01T17:59:10.213Z,23.43
2023-04-01T18:01:58.605Z,25.63
2023-04-01T18:05:00.277Z,21.13
2023-04-01T18:07:55.913Z,18.30
2023-04-01T18:10:32.059Z,19.73
2023-04-01T18:13:37.363Z,18.63
2023-04-01T18:16:19.991Z,18.63
2023-04-01T18:18:58.181Z,35.07
2023-04-01T18:21:36.056Z,30.23
2023-04-01T18:24:19.377Z,93.30
2023-04-01T18:26:54.892Z,453.10
2023-04-01T18:29:35.317Z,91.53
2023-04-01T18:32:26.063Z,229.50
2023-04-01T18:35:03.125Z,196.83
2023-04-01T18:37:36.003Z,39.63
2023-04-01T18:40:19.505Z,34.17
2023-04-01T18:43:01.505Z,329.93
2023-04-01T18:45:35.184Z,212.67
2023-04-01T18:48:16.711Z,86.03
2023-04-01T18:50:50.064Z,46.87
2023-04-01T18:53:29.354Z,33.03
2023-04-01T18:56:01.877Z,28.03
2023-04-01T18:58:36.946Z,27.30
2023-04-01T19:01:19.785Z,30.03
2023-04-01T19:04:00.204Z,42.90
2023-04-01T19:06:34.736Z,118.43
2023-04-01T19:09:19.321Z,60.17
2023-04-01T19:12:02.182Z,100.37
2023-04-01T19:14:41.345Z,58.30
2023-04-01T19:17:19.016Z,294.87
2023-04-01T19:19:58.425Z,203.53
2023-04-01T19:22:44.822Z,198.07
2023-04-01T19:25:25.837Z,85.10
2023-04-01T19:28:02.920Z,28.97
2023-04-01T19:30:44.926Z,30.73
2023-04-01T19:33:28.123Z,31.63
2023-04-01T19:36:05.550Z,138.37
2023-04-01T19:38:41.555Z,190.87
2023-04-01T19:41:26.444Z,178.13
2023-04-01T19:44:08.875Z,169.60
2023-04-01T19:46:43.800Z,62.13
2023-04-01T19:49:34.838Z,44.63
2023-04-01T19:52:08.629Z,36.10
2023-04-01T19:54:50.040Z,78.20
2023-04-01T19:57:29.060Z,46.93
2023-04-01T20:00:05.642Z,32.57
2023-04-01T20:02:58.738Z,31.63
2023-04-01T20:05:48.289Z,28.40
2023-04-01T20:08:25.640Z,27.97
2023-04-01T20:11:05.771Z,26.07
2023-04-01T20:13:43.186Z,26.87
2023-04-01T20:16:16.312Z,30.33
2023-04-01T20:18:53.959Z,28.40
2023-04-01T20:21:37.611Z,32.53
2023-04-01T20:24:17.404Z,26.97
2023-04-01T20:26:51.583Z,29.57
2023-04-01T20:29:41.556Z,28.20
2023-04-01T20:32:29.384Z,36.67
2023-04-01T20:35:17.079Z,321.90
2023-04-01T20:37:54.283Z,285.47
2023-04-01T20:40:40.094Z,544.47
2023-04-01T20:43:33.165Z,135.20
2023-04-01T20:46:07.850Z,33.53
2023-04-01T20:49:17.734Z,31.90
2023-04-01T20:51:53.967Z,27.13
2023-04-01T20:54:48.920Z,27.90
2023-04-01T20:57:24.392Z,30.47
2023-04-01T21:00:23.121Z,29.47
2023-04-01T21:03:04.724Z,29.33
2023-04-01T21:06:06.942Z,29.77
2023-04-01T21:08:50.884Z,35.50
2023-04-01T21:11:26.739Z,36.13
2023-04-01T21:14:13.720Z,37.50
2023-04-01T21:16:50.008Z,36.30
2023-04-01T21:19:35.748Z,38.97
2023-04-01T21:22:20.815Z,39.13
2023-04-01T21:25:24.666Z,35.90
2023-04-01T21:28:12.625Z,34.93
2023-04-01T21:30:59.759Z,35.67
2023-04-01T21:33:47.922Z,37.70
2023-04-01T21:36:33.492Z,36.77
2023-04-01T21:39:19.254Z,37.20
2023-04-01T21:42:06.198Z,34.23
2023-04-01T21:44:59.868Z,39.33
2023-04-01T21:47:59.986Z,32.50
2023-04-01T21:51:04.021Z,35.00
2023-04-01T21:54:11.361Z,35.90
2023-04-01T21:57:25.525Z,39.67
2023-04-01T22:00:19.969Z,38.33
2023-04-01T22:03:30.519Z,36.00
2023-04-01T22:06:11.197Z,33.50
2023-04-01T22:08:58.603Z,33.73
2023-04-01T22:11:39.099Z,36.33
2023-04-01T22:14:18.870Z,37.23
2023-04-01T22:16:53.139Z,33.47
2023-04-01T22:19:26.752Z,35.77
2023-04-01T22:22:03.829Z,47.80
2023-04-01T22:24:42.981Z,46.33
2023-04-01T22:27:23.377Z,58.80
2023-04-01T22:30:03.443Z,38.73
2023-04-01T22:32:38.483Z,36.40
2023-04-01T22:35:14.001Z,33.03
2023-04-01T22:37:52.794Z,34.87
2023-04-01T22:40:28.027Z,30.03
2023-04-01T22:43:01.937Z,30.87
2023-04-01T22:45:52.342Z,33.13
2023-04-01T22:48:26.620Z,29.67
2023-04-01T22:51:00.576Z,32.20
2023-04-01T22:53:41.110Z,38.13
2023-04-01T22:56:17.815Z,32.37
2023-04-01T22:58:53.604Z,28.97
2023-04-01T23:01:27.539Z,28.00
2023-04-01T23:04:03.102Z,25.47
2023-04-01T23:06:35.789Z,24.47
2023-04-01T23:09:17.445Z,20.27
2023-04-01T23:11:52.992Z,24.07
2023-04-01T23:14:39.416Z,24.30
2023-04-01T23:17:20.156Z,23.27
2023-04-01T23:19:55.176Z,20.10
2023-04-01T23:22:31.078Z,21.50
2023-04-01T23:25:07.641Z,20.53
2023-04-01T23:27:43.089Z,17.23
2023-04-01T23:30:59.614Z,16.90
2023-04-01T23:33:31.827Z,17.30
2023-04-01T23:36:06.556Z,15.47
2023-04-01T23:38:38.645Z,13.30
2023-04-01T23:41:08.675Z,13.00
2023-04-01T23:43:41.753Z,12.40
2023-04-01T23:46:11.946Z,12.83
2023-04-01T23:48:43.757Z,11.23
2023-04-01T23:51:19.177Z,11.13
2023-04-01T23:53:49.845Z,11.00
2023-04-01T23:56:20.155Z,10.60
2023-04-01T23:58:53.577Z,10.73
